Terminal Aerodrome Forecast
Issued by NWS Wilmington, NC

Home | Current Version | Previous Version | Text Only | Print | Product List | Glossary On
Versions: 1 2 3 4 5 6 7 8 9 10 11 12 13
793
FTUS42 KILM 251316 AAA
TAFILM
TAF AMD
KILM 251316Z 2513/2612 20005KT P6SM BKN050
     FM251700 19012KT P6SM SCT050
     FM252200 18005KT P6SM BKN250
     FM260200 14004KT P6SM BKN250
     FM260700 16004KT P6SM BKN100=

USA.gov is the U.S. government's official web portal to all federal, state and local government web resources and services.